createdAt,value
2023-01-30T00:01:32.741Z,43.20
2023-01-30T00:03:59.816Z,45.40
2023-01-30T00:06:27.018Z,45.05
2023-01-30T00:08:53.685Z,47.58
2023-01-30T00:11:20.991Z,39.53
2023-01-30T00:13:49.658Z,43.22
2023-01-30T00:16:19.486Z,48.28
2023-01-30T00:18:46.260Z,44.05
2023-01-30T00:21:17.342Z,44.95
2023-01-30T00:23:44.795Z,44.08
2023-01-30T00:26:12.446Z,41.13
2023-01-30T00:28:39.854Z,42.05
2023-01-30T00:31:07.085Z,42.03
2023-01-30T00:33:33.701Z,45.50
2023-01-30T00:36:05.557Z,40.80
2023-01-30T00:38:32.205Z,41.05
2023-01-30T00:40:58.829Z,44.78
2023-01-30T00:43:43.895Z,43.00
2023-01-30T00:46:44.829Z,39.92
2023-01-30T00:49:11.554Z,38.15
2023-01-30T00:51:38.869Z,39.80
2023-01-30T00:54:05.472Z,41.70
2023-01-30T00:56:32.196Z,44.20
2023-01-30T00:58:58.748Z,40.40
2023-01-30T01:01:25.576Z,38.88
2023-01-30T01:03:54.522Z,38.40
2023-01-30T01:06:23.625Z,43.63
2023-01-30T01:08:50.211Z,38.38
2023-01-30T01:11:24.524Z,40.83
2023-01-30T01:13:53.775Z,41.28
2023-01-30T01:16:20.828Z,38.45
2023-01-30T01:18:50.193Z,42.55
2023-01-30T01:21:19.295Z,36.78
2023-01-30T01:23:59.054Z,43.20
2023-01-30T01:26:28.341Z,37.10
2023-01-30T01:28:57.062Z,38.25
2023-01-30T01:31:24.505Z,35.33
2023-01-30T01:33:51.792Z,37.60
2023-01-30T01:36:42.438Z,35.08
2023-01-30T01:39:06.410Z,40.35
2023-01-30T01:41:33.024Z,39.38
2023-01-30T01:44:04.138Z,38.25
2023-01-30T01:46:45.417Z,38.05
2023-01-30T01:49:21.657Z,38.72
2023-01-30T01:52:04.070Z,34.15
2023-01-30T01:54:48.033Z,38.33
2023-01-30T01:57:35.569Z,33.17
2023-01-30T02:00:12.559Z,36.38
2023-01-30T02:02:48.025Z,36.67
2023-01-30T02:05:17.764Z,35.70
2023-01-30T02:07:55.588Z,34.33
2023-01-30T02:10:33.543Z,31.08
2023-01-30T02:13:00.122Z,30.98
2023-01-30T02:15:26.768Z,28.33
2023-01-30T02:17:53.483Z,33.83
2023-01-30T02:20:56.756Z,25.80
2023-01-30T02:23:35.655Z,29.45
2023-01-30T02:26:32.466Z,33.17
2023-01-30T02:29:20.844Z,28.48
2023-01-30T02:31:56.309Z,35.30
2023-01-30T02:34:37.953Z,26.17
2023-01-30T02:37:22.222Z,21.15
2023-01-30T02:40:18.069Z,23.77
2023-01-30T02:42:57.148Z,24.27
2023-01-30T02:45:36.420Z,21.92
2023-01-30T02:48:23.412Z,22.40
2023-01-30T02:50:57.080Z,18.42
2023-01-30T02:53:24.038Z,19.17
2023-01-30T02:55:52.955Z,14.77
2023-01-30T02:58:24.040Z,17.38
2023-01-30T03:01:18.683Z,16.13
2023-01-30T03:04:06.362Z,16.13
2023-01-30T03:06:59.065Z,17.08
2023-01-30T03:09:45.349Z,13.13
2023-01-30T03:12:22.130Z,16.15
2023-01-30T03:14:59.268Z,14.30
2023-01-30T03:17:27.348Z,17.40
2023-01-30T03:19:57.390Z,15.55
2023-01-30T03:22:26.285Z,12.90
2023-01-30T03:24:54.559Z,10.88
2023-01-30T03:27:22.272Z,15.00
2023-01-30T03:29:51.116Z,16.50
2023-01-30T03:32:17.720Z,13.57
2023-01-30T03:34:44.309Z,10.70
2023-01-30T03:37:10.993Z,10.77
2023-01-30T03:39:37.636Z,12.40
2023-01-30T03:42:04.468Z,14.20
2023-01-30T03:44:31.152Z,12.25
2023-01-30T03:47:02.478Z,18.30
2023-01-30T03:49:29.085Z,11.20
2023-01-30T03:51:55.674Z,11.32
2023-01-30T03:54:24.509Z,16.27
2023-01-30T03:56:51.059Z,13.93
2023-01-30T03:59:17.662Z,9.45
2023-01-30T04:01:44.326Z,11.80
2023-01-30T04:04:10.948Z,12.63
2023-01-30T04:06:39.999Z,13.00
2023-01-30T04:09:06.523Z,15.40
2023-01-30T04:11:33.087Z,12.70
2023-01-30T04:13:59.666Z,15.65
2023-01-30T04:16:27.599Z,15.80
2023-01-30T04:18:54.336Z,13.20
2023-01-30T04:21:21.346Z,18.45
2023-01-30T04:23:48.042Z,11.57
2023-01-30T04:26:17.223Z,12.77
2023-01-30T04:28:44.663Z,14.85
2023-01-30T04:31:11.706Z,13.45
2023-01-30T04:33:39.986Z,14.43
2023-01-30T04:36:08.752Z,13.02
2023-01-30T04:38:36.211Z,14.85
2023-01-30T04:41:03.833Z,11.68
2023-01-30T04:43:31.319Z,14.65
2023-01-30T04:45:58.363Z,17.30
2023-01-30T04:48:25.932Z,16.40
2023-01-30T04:50:54.883Z,15.25
2023-01-30T04:53:24.159Z,8.68
2023-01-30T04:55:51.233Z,22.50
2023-01-30T04:58:20.764Z,17.38
2023-01-30T05:00:48.246Z,9.40
2023-01-30T05:03:15.418Z,12.85
2023-01-30T05:05:42.056Z,11.90
2023-01-30T05:08:11.332Z,15.90
2023-01-30T05:10:40.439Z,11.55
2023-01-30T05:13:07.340Z,13.52
2023-01-30T05:15:34.067Z,12.93
2023-01-30T05:18:03.141Z,14.27
2023-01-30T05:20:29.726Z,12.45
2023-01-30T05:22:58.697Z,14.18
2023-01-30T05:25:27.551Z,15.75
2023-01-30T05:27:54.111Z,11.38
2023-01-30T05:30:20.770Z,15.13
2023-01-30T05:32:47.361Z,12.75
2023-01-30T05:35:14.075Z,14.85
2023-01-30T05:37:42.848Z,19.27
2023-01-30T05:40:10.157Z,11.80
2023-01-30T05:42:36.723Z,16.95
2023-01-30T05:45:03.460Z,7.47
2023-01-30T05:47:32.994Z,10.98
2023-01-30T05:49:59.651Z,12.70
2023-01-30T05:52:26.289Z,11.27
2023-01-30T05:54:52.927Z,14.43
2023-01-30T05:57:19.552Z,16.27
2023-01-30T05:59:46.130Z,18.92
2023-01-30T06:02:12.740Z,12.23
2023-01-30T06:04:39.345Z,15.05
2023-01-30T06:07:06.011Z,11.02
2023-01-30T06:09:37.495Z,11.88
2023-01-30T06:12:04.280Z,6.72
2023-01-30T06:14:30.845Z,15.30
2023-01-30T06:16:57.518Z,18.83
2023-01-30T06:19:24.224Z,13.73
2023-01-30T06:21:50.863Z,9.75
2023-01-30T06:24:17.484Z,15.65
2023-01-30T06:26:46.418Z,14.15
2023-01-30T06:29:13.112Z,19.45
2023-01-30T06:31:42.110Z,11.05
2023-01-30T06:34:12.022Z,7.03
2023-01-30T06:36:38.582Z,16.83
2023-01-30T06:39:05.227Z,9.98
2023-01-30T06:41:31.982Z,12.23
2023-01-30T06:43:58.605Z,16.92
2023-01-30T06:46:25.382Z,11.05
2023-01-30T06:48:52.020Z,16.90
2023-01-30T06:51:20.836Z,7.50
2023-01-30T06:53:47.543Z,15.95
2023-01-30T06:56:14.130Z,14.10
2023-01-30T06:58:40.701Z,12.43
2023-01-30T07:01:07.295Z,11.48
2023-01-30T07:03:34.003Z,16.90
2023-01-30T07:06:02.980Z,12.77
2023-01-30T07:08:29.623Z,8.93
2023-01-30T07:10:56.221Z,9.63
2023-01-30T07:13:22.848Z,14.20
2023-01-30T07:15:49.385Z,17.67
2023-01-30T07:18:18.212Z,13.77
2023-01-30T07:20:48.970Z,9.52
2023-01-30T07:23:18.178Z,16.48
2023-01-30T07:25:44.924Z,9.68
2023-01-30T07:28:11.528Z,10.95
2023-01-30T07:30:38.221Z,16.50
2023-01-30T07:33:06.674Z,9.68
2023-01-30T07:35:36.442Z,19.17
2023-01-30T07:38:03.430Z,16.17
2023-01-30T07:40:29.975Z,15.82
2023-01-30T07:42:58.690Z,17.58
2023-01-30T07:45:26.557Z,20.88
2023-01-30T07:47:56.027Z,16.85
2023-01-30T07:50:22.850Z,19.63
2023-01-30T07:52:51.876Z,23.10
2023-01-30T07:55:18.818Z,22.30
2023-01-30T07:57:47.822Z,19.35
2023-01-30T08:00:15.058Z,23.15
2023-01-30T08:02:41.745Z,20.27
2023-01-30T08:05:08.812Z,18.48
2023-01-30T08:07:35.515Z,16.42
2023-01-30T08:10:02.202Z,15.20
2023-01-30T08:12:29.208Z,18.58
2023-01-30T08:14:55.985Z,14.77
2023-01-30T08:17:24.947Z,19.58
2023-01-30T08:19:51.623Z,15.73
2023-01-30T08:22:18.219Z,17.23
2023-01-30T08:24:44.820Z,18.70
2023-01-30T08:27:11.503Z,16.90
2023-01-30T08:29:38.149Z,20.75
2023-01-30T08:32:04.984Z,13.90
2023-01-30T08:34:31.928Z,15.88
2023-01-30T08:36:58.544Z,24.45
2023-01-30T08:39:25.122Z,20.75
2023-01-30T08:41:51.731Z,19.83
2023-01-30T08:44:18.649Z,14.30
2023-01-30T08:46:45.294Z,15.07
2023-01-30T08:49:12.133Z,17.23
2023-01-30T08:51:38.725Z,16.55
2023-01-30T08:54:07.640Z,11.70
2023-01-30T08:56:35.013Z,15.75
2023-01-30T08:59:01.963Z,16.83
2023-01-30T09:01:28.801Z,21.48
2023-01-30T09:03:57.483Z,9.55
2023-01-30T09:06:26.185Z,11.82
2023-01-30T09:08:52.942Z,17.65
2023-01-30T09:11:19.725Z,16.58
2023-01-30T09:13:49.783Z,17.13
2023-01-30T09:16:18.845Z,13.07
2023-01-30T09:18:47.760Z,13.63
2023-01-30T09:21:14.690Z,10.00
2023-01-30T09:23:41.560Z,14.95
2023-01-30T09:26:08.618Z,12.10
2023-01-30T09:28:35.772Z,15.02
2023-01-30T09:31:03.103Z,14.90
2023-01-30T09:33:30.356Z,12.68
2023-01-30T09:35:57.153Z,15.05
2023-01-30T09:38:23.748Z,14.05
2023-01-30T09:40:59.366Z,13.30
2023-01-30T09:44:13.245Z,11.63
2023-01-30T09:47:04.880Z,16.00
2023-01-30T09:49:53.164Z,12.75
2023-01-30T09:52:58.135Z,11.77
2023-01-30T09:55:30.188Z,9.65
2023-01-30T09:58:01.069Z,11.15
2023-01-30T10:00:30.393Z,17.40
2023-01-30T10:03:04.981Z,11.27
2023-01-30T10:05:37.190Z,11.88
2023-01-30T10:08:37.375Z,8.13
2023-01-30T10:11:21.893Z,12.02
2023-01-30T10:14:02.968Z,22.38
2023-01-30T10:17:07.964Z,15.90
2023-01-30T10:19:41.303Z,14.02
2023-01-30T10:22:48.460Z,14.75
2023-01-30T10:25:43.608Z,17.05
2023-01-30T10:28:19.307Z,11.93
2023-01-30T10:30:55.504Z,16.27
2023-01-30T10:33:30.807Z,13.40
2023-01-30T10:36:10.654Z,8.55
2023-01-30T10:38:53.683Z,14.85
2023-01-30T10:41:56.884Z,14.82
2023-01-30T10:44:24.437Z,15.20
2023-01-30T10:47:47.052Z,14.73
2023-01-30T10:50:43.939Z,14.70
2023-01-30T10:53:21.533Z,14.35
2023-01-30T10:55:59.459Z,15.63
2023-01-30T10:58:58.588Z,20.63
2023-01-30T11:01:40.008Z,24.25
2023-01-30T11:04:22.288Z,13.75
2023-01-30T11:06:49.629Z,19.38
2023-01-30T11:09:18.670Z,15.15
2023-01-30T11:11:54.638Z,12.10
2023-01-30T11:14:21.678Z,14.30
2023-01-30T11:16:51.628Z,22.63
2023-01-30T11:19:22.916Z,15.75
2023-01-30T11:22:00.439Z,16.77
2023-01-30T11:24:32.751Z,15.63
2023-01-30T11:27:21.868Z,15.07
2023-01-30T11:29:50.373Z,17.50
2023-01-30T11:32:26.228Z,17.17
2023-01-30T11:35:26.604Z,15.57
2023-01-30T11:37:53.661Z,17.92
2023-01-30T11:40:28.474Z,21.65
2023-01-30T11:43:12.795Z,13.27
2023-01-30T11:45:47.134Z,10.90
2023-01-30T11:48:33.314Z,15.85
2023-01-30T11:51:11.166Z,13.75
2023-01-30T11:53:54.524Z,18.63
2023-01-30T11:56:29.892Z,11.05
2023-01-30T11:59:03.010Z,17.33
2023-01-30T12:01:33.071Z,27.27
2023-01-30T12:04:00.627Z,13.80
2023-01-30T12:06:40.275Z,15.05
2023-01-30T12:09:34.905Z,14.43
2023-01-30T12:12:01.667Z,11.48
2023-01-30T12:14:49.481Z,14.73
2023-01-30T12:17:36.488Z,22.02
2023-01-30T12:20:17.934Z,12.38
2023-01-30T12:22:52.360Z,19.13
2023-01-30T12:25:35.792Z,11.98
2023-01-30T12:28:11.260Z,22.77
2023-01-30T12:30:50.575Z,17.30
2023-01-30T12:36:09.745Z,17.48
2023-01-30T12:39:06.607Z,19.05
2023-01-30T12:41:56.685Z,17.58
2023-01-30T12:44:52.488Z,13.90
2023-01-30T12:47:22.282Z,17.63
2023-01-30T12:50:00.710Z,20.40
2023-01-30T12:52:45.493Z,20.00
2023-01-30T12:55:30.685Z,24.58
2023-01-30T12:58:05.726Z,13.88
2023-01-30T13:00:38.154Z,17.25
2023-01-30T13:03:40.350Z,23.27
2023-01-30T13:06:39.432Z,13.73
2023-01-30T13:09:19.965Z,18.70
2023-01-30T13:12:04.569Z,20.95
2023-01-30T13:14:55.636Z,14.57
2023-01-30T13:17:31.291Z,14.50
2023-01-30T13:20:16.493Z,22.35
2023-01-30T13:22:57.913Z,15.20
2023-01-30T13:25:54.180Z,24.38
2023-01-30T13:28:26.135Z,19.58
2023-01-30T13:30:55.165Z,30.20
2023-01-30T13:33:30.745Z,16.67
2023-01-30T13:36:10.418Z,19.23
2023-01-30T13:38:43.214Z,18.60
2023-01-30T13:41:15.001Z,18.35
2023-01-30T13:43:47.818Z,13.90
2023-01-30T13:46:20.434Z,22.35
2023-01-30T13:48:55.722Z,16.20
2023-01-30T13:51:48.089Z,14.07
2023-01-30T13:54:17.643Z,18.17
2023-01-30T13:57:01.757Z,20.77
2023-01-30T13:59:37.405Z,19.88
2023-01-30T14:02:04.202Z,20.10
2023-01-30T14:04:47.001Z,21.80
2023-01-30T14:07:31.066Z,26.67
2023-01-30T14:10:09.847Z,12.82
2023-01-30T14:13:13.245Z,20.95
2023-01-30T14:15:52.728Z,16.60
2023-01-30T14:18:25.199Z,20.55
2023-01-30T14:21:22.678Z,20.75
2023-01-30T14:24:01.840Z,21.55
2023-01-30T14:26:56.242Z,14.93
2023-01-30T14:29:38.138Z,14.57
2023-01-30T14:32:38.735Z,14.75
2023-01-30T14:35:06.512Z,18.40
2023-01-30T14:37:39.027Z,19.92
2023-01-30T14:40:37.861Z,13.35
2023-01-30T14:43:15.713Z,19.80
2023-01-30T14:45:48.875Z,15.18
2023-01-30T14:48:27.911Z,18.15
2023-01-30T14:51:22.702Z,16.63
2023-01-30T14:53:56.376Z,17.83
2023-01-30T14:56:36.682Z,17.48
2023-01-30T14:59:07.676Z,21.40
2023-01-30T15:01:57.651Z,19.67
2023-01-30T15:04:45.941Z,20.90
2023-01-30T15:07:24.755Z,14.65
2023-01-30T15:10:01.176Z,10.32
2023-01-30T15:12:48.062Z,17.63
2023-01-30T15:15:32.736Z,18.98
2023-01-30T15:18:08.428Z,19.05
2023-01-30T15:20:47.381Z,18.98
2023-01-30T15:23:47.432Z,23.55
2023-01-30T15:26:47.529Z,19.65
2023-01-30T15:29:34.359Z,14.48
2023-01-30T15:32:03.669Z,21.67
2023-01-30T15:34:32.413Z,19.17
2023-01-30T15:36:59.076Z,19.42
2023-01-30T15:39:28.329Z,21.77
2023-01-30T15:42:05.262Z,26.25
2023-01-30T15:44:48.552Z,17.35
2023-01-30T15:47:15.117Z,21.23
2023-01-30T15:50:02.546Z,18.10
2023-01-30T15:52:40.623Z,17.73
2023-01-30T15:55:15.624Z,20.10
2023-01-30T15:57:47.865Z,22.48
2023-01-30T16:00:33.424Z,23.40
2023-01-30T16:03:04.790Z,25.13
2023-01-30T16:05:31.434Z,25.52
2023-01-30T16:08:09.439Z,17.33
2023-01-30T16:10:44.910Z,19.27
2023-01-30T16:13:11.588Z,19.83
2023-01-30T16:15:50.275Z,19.00
2023-01-30T16:18:32.291Z,24.13
2023-01-30T16:21:05.431Z,23.73
2023-01-30T16:23:37.476Z,20.48
2023-01-30T16:26:09.977Z,23.60
2023-01-30T16:28:36.737Z,21.92
2023-01-30T16:31:09.709Z,23.63
2023-01-30T16:33:37.460Z,17.38
2023-01-30T16:36:27.147Z,28.02
2023-01-30T16:38:55.273Z,18.10
2023-01-30T16:41:35.680Z,18.95
2023-01-30T16:44:17.556Z,24.05
2023-01-30T16:47:02.733Z,27.65
2023-01-30T16:49:39.355Z,27.75
2023-01-30T16:52:19.960Z,23.27
2023-01-30T16:54:54.965Z,21.77
2023-01-30T16:57:41.936Z,23.42
2023-01-30T17:00:23.014Z,21.27
2023-01-30T17:02:58.678Z,23.20
2023-01-30T17:05:42.874Z,23.98
2023-01-30T17:08:49.426Z,31.85
2023-01-30T17:11:31.613Z,22.45
2023-01-30T17:14:26.507Z,16.33
2023-01-30T17:17:15.688Z,14.93
2023-01-30T17:19:42.249Z,10.77
2023-01-30T17:22:20.641Z,10.95
2023-01-30T17:24:47.315Z,8.50
2023-01-30T17:27:15.138Z,19.63
2023-01-30T17:29:46.002Z,17.75
2023-01-30T17:32:15.390Z,21.70
2023-01-30T17:34:42.165Z,21.83
2023-01-30T17:37:17.566Z,13.60
2023-01-30T17:39:44.456Z,14.80
2023-01-30T17:42:12.349Z,13.27
2023-01-30T17:44:40.045Z,10.23
2023-01-30T17:47:09.262Z,12.95
2023-01-30T17:49:35.866Z,12.50
2023-01-30T17:52:02.439Z,12.38
2023-01-30T17:54:31.768Z,13.95
2023-01-30T17:57:04.342Z,15.45
2023-01-30T17:59:31.608Z,8.63
2023-01-30T18:01:59.185Z,16.83
2023-01-30T18:04:25.790Z,16.75
2023-01-30T18:07:04.002Z,12.93
2023-01-30T18:09:33.159Z,9.35
2023-01-30T18:11:59.812Z,16.38
2023-01-30T18:14:26.594Z,15.30
2023-01-30T18:17:00.143Z,11.95
2023-01-30T18:19:31.682Z,15.75
2023-01-30T18:22:00.795Z,19.17
2023-01-30T18:24:28.253Z,13.10
2023-01-30T18:26:54.840Z,17.00
2023-01-30T18:29:21.608Z,17.20
2023-01-30T18:31:50.837Z,19.25
2023-01-30T18:34:17.515Z,15.32
2023-01-30T18:36:44.117Z,16.33
2023-01-30T18:39:12.082Z,19.55
2023-01-30T18:41:41.138Z,15.68
2023-01-30T18:44:10.685Z,12.60
2023-01-30T18:46:39.829Z,19.65
2023-01-30T18:49:08.296Z,21.73
2023-01-30T18:51:37.041Z,16.63
2023-01-30T18:54:03.718Z,16.45
2023-01-30T18:56:33.187Z,18.80
2023-01-30T18:59:05.384Z,19.88
2023-01-30T19:01:35.745Z,14.88
2023-01-30T19:04:07.362Z,19.58
2023-01-30T19:06:37.436Z,20.67
2023-01-30T19:09:05.204Z,25.63
2023-01-30T19:11:50.397Z,20.25
2023-01-30T19:14:16.964Z,16.90
2023-01-30T19:16:43.752Z,17.58
2023-01-30T19:19:10.839Z,23.50
2023-01-30T19:21:37.593Z,22.98
2023-01-30T19:24:06.839Z,23.77
2023-01-30T19:26:34.482Z,21.02
2023-01-30T19:29:03.683Z,29.35
2023-01-30T19:31:30.379Z,25.08
2023-01-30T19:34:01.766Z,23.38
2023-01-30T19:36:31.776Z,25.90
2023-01-30T19:38:59.829Z,27.35
2023-01-30T19:41:29.320Z,24.40
2023-01-30T19:43:57.594Z,26.10
2023-01-30T19:46:24.534Z,16.67
2023-01-30T19:48:51.361Z,30.30
2023-01-30T19:51:21.193Z,29.23
2023-01-30T19:53:53.990Z,23.98
2023-01-30T19:56:22.502Z,20.77
2023-01-30T19:58:52.603Z,15.25
2023-01-30T20:01:21.377Z,22.55
2023-01-30T20:03:48.740Z,19.42
2023-01-30T20:06:23.018Z,15.63
2023-01-30T20:08:54.698Z,16.35
2023-01-30T20:11:24.307Z,19.90
2023-01-30T20:13:51.873Z,15.52
2023-01-30T20:16:22.857Z,20.48
2023-01-30T20:18:55.869Z,21.02
2023-01-30T20:21:23.901Z,21.40
2023-01-30T20:23:53.069Z,23.00
2023-01-30T20:26:23.498Z,26.75
2023-01-30T20:28:50.655Z,20.60
2023-01-30T20:31:20.672Z,23.23
2023-01-30T20:33:50.396Z,23.35
2023-01-30T20:36:21.762Z,29.45
2023-01-30T20:38:49.747Z,20.98
2023-01-30T20:41:19.093Z,18.70
2023-01-30T20:43:49.449Z,20.80
2023-01-30T20:46:25.338Z,21.33
2023-01-30T20:48:54.494Z,21.42
2023-01-30T20:51:24.847Z,19.90
2023-01-30T20:53:53.965Z,23.33
2023-01-30T20:56:21.938Z,23.63
2023-01-30T20:58:49.095Z,22.42
2023-01-30T21:01:21.484Z,20.15
2023-01-30T21:03:52.579Z,20.55
2023-01-30T21:06:41.753Z,15.60
2023-01-30T21:09:11.849Z,17.53
2023-01-30T21:11:39.033Z,14.27
2023-01-30T21:14:06.179Z,17.83
2023-01-30T21:16:34.008Z,19.98
2023-01-30T21:19:04.101Z,11.97
2023-01-30T21:21:39.203Z,16.83
2023-01-30T21:24:12.741Z,28.00
2023-01-30T21:26:46.038Z,22.00
2023-01-30T21:29:15.503Z,15.38
2023-01-30T21:31:44.538Z,16.17
2023-01-30T21:34:14.195Z,13.70
2023-01-30T21:37:02.997Z,19.97
2023-01-30T21:39:48.239Z,12.53
2023-01-30T21:42:33.150Z,18.33
2023-01-30T21:45:01.099Z,12.43
2023-01-30T21:47:27.698Z,16.90
2023-01-30T21:49:54.877Z,16.80
2023-01-30T21:52:21.456Z,16.67
2023-01-30T21:54:48.016Z,22.15
2023-01-30T21:57:14.596Z,20.60
2023-01-30T21:59:41.209Z,25.60
2023-01-30T22:02:09.703Z,17.83
2023-01-30T22:04:36.650Z,14.23
2023-01-30T22:07:05.751Z,19.07
2023-01-30T22:09:33.304Z,18.23
2023-01-30T22:11:59.820Z,17.63
2023-01-30T22:14:29.318Z,12.90
2023-01-30T22:16:55.914Z,14.10
2023-01-30T22:19:22.455Z,11.93
2023-01-30T22:21:51.620Z,18.40
2023-01-30T22:24:18.201Z,22.27
2023-01-30T22:26:44.829Z,15.97
2023-01-30T22:29:11.539Z,19.57
2023-01-30T22:31:40.459Z,23.07
2023-01-30T22:34:07.469Z,18.53
2023-01-30T22:36:35.316Z,14.17
2023-01-30T22:39:07.829Z,20.80
2023-01-30T22:41:38.702Z,14.50
2023-01-30T22:44:07.950Z,15.47
2023-01-30T22:46:39.721Z,13.73
2023-01-30T22:49:09.595Z,11.60
2023-01-30T22:51:39.464Z,17.17
2023-01-30T22:54:10.087Z,16.70
2023-01-30T22:56:40.687Z,12.97
2023-01-30T22:59:08.527Z,16.00
2023-01-30T23:01:40.717Z,20.53
2023-01-30T23:04:18.761Z,14.50
2023-01-30T23:06:46.369Z,17.00
2023-01-30T23:09:18.545Z,20.17
2023-01-30T23:12:12.890Z,20.83
2023-01-30T23:14:40.065Z,15.00
2023-01-30T23:17:26.564Z,21.13
2023-01-30T23:19:54.531Z,22.47
2023-01-30T23:22:21.534Z,18.70
2023-01-30T23:24:48.769Z,13.70
2023-01-30T23:27:15.471Z,17.37
2023-01-30T23:29:42.301Z,18.23
2023-01-30T23:32:08.945Z,14.37
2023-01-30T23:34:35.891Z,20.57
2023-01-30T23:37:02.700Z,15.63
2023-01-30T23:39:29.266Z,15.77
2023-01-30T23:41:55.863Z,18.30
2023-01-30T23:44:24.960Z,15.33
2023-01-30T23:46:51.676Z,15.93
2023-01-30T23:49:18.248Z,17.67
2023-01-30T23:51:45.251Z,17.60
2023-01-30T23:54:13.332Z,19.77
2023-01-30T23:56:42.503Z,18.67
2023-01-30T23:59:09.321Z,14.13
